sensor_id;sensor_type;location;lat;lon;timestamp;pressure;altitude;pressure_sealevel;temperature;humidity
43503;BME280;29098;48.184;16.298;2022-08-19T00:01:50;98586.66;;;21.67;67.33
43503;BME280;29098;48.184;16.298;2022-08-19T00:04:18;98601.09;;;21.86;66.89
43503;BME280;29098;48.184;16.298;2022-08-19T00:06:45;98584.25;;;21.70;67.21
43503;BME280;29098;48.184;16.298;2022-08-19T00:09:14;98605.19;;;21.68;67.89
43503;BME280;29098;48.184;16.298;2022-08-19T00:11:42;98592.31;;;21.60;67.87
43503;BME280;29098;48.184;16.298;2022-08-19T00:14:10;98584.81;;;21.62;67.86
43503;BME280;29098;48.184;16.298;2022-08-19T00:16:40;98584.53;;;21.63;68.18
43503;BME280;29098;48.184;16.298;2022-08-19T00:19:06;98606.25;;;21.62;67.49
43503;BME280;29098;48.184;16.298;2022-08-19T00:21:32;98590.72;;;21.59;68.13
43503;BME280;29098;48.184;16.298;2022-08-19T00:24:01;98580.31;;;21.37;68.56
43503;BME280;29098;48.184;16.298;2022-08-19T00:26:27;98592.63;;;21.43;68.78
43503;BME280;29098;48.184;16.298;2022-08-19T00:28:53;98574.72;;;21.28;69.39
43503;BME280;29098;48.184;16.298;2022-08-19T00:31:19;98587.53;;;21.46;68.33
43503;BME280;29098;48.184;16.298;2022-08-19T00:33:46;98595.00;;;21.55;68.19
43503;BME280;29098;48.184;16.298;2022-08-19T00:36:15;98585.09;;;21.45;68.76
43503;BME280;29098;48.184;16.298;2022-08-19T00:38:41;98582.69;;;21.59;68.15
43503;BME280;29098;48.184;16.298;2022-08-19T00:41:13;98580.56;;;21.40;69.18
43503;BME280;29098;48.184;16.298;2022-08-19T00:43:40;98585.19;;;21.24;69.85
43503;BME280;29098;48.184;16.298;2022-08-19T00:46:06;98575.53;;;21.23;69.43
43503;BME280;29098;48.184;16.298;2022-08-19T00:48:33;98584.59;;;21.43;68.65
43503;BME280;29098;48.184;16.298;2022-08-19T00:51:00;98580.06;;;21.28;69.57
43503;BME280;29098;48.184;16.298;2022-08-19T00:53:27;98597.75;;;21.29;69.70
43503;BME280;29098;48.184;16.298;2022-08-19T00:55:57;98598.84;;;21.28;69.59
43503;BME280;29098;48.184;16.298;2022-08-19T00:58:27;98572.84;;;21.18;70.25
43503;BME280;29098;48.184;16.298;2022-08-19T01:00:54;98580.63;;;21.19;70.16
43503;BME280;29098;48.184;16.298;2022-08-19T01:03:21;98570.47;;;21.01;70.80
43503;BME280;29098;48.184;16.298;2022-08-19T01:05:47;98570.47;;;21.11;69.92
43503;BME280;29098;48.184;16.298;2022-08-19T01:08:15;98590.25;;;21.31;69.61
43503;BME280;29098;48.184;16.298;2022-08-19T01:10:49;98581.19;;;21.11;70.51
43503;BME280;29098;48.184;16.298;2022-08-19T01:13:19;98591.09;;;21.11;70.50
43503;BME280;29098;48.184;16.298;2022-08-19T01:15:48;98592.16;;;21.04;70.30
43503;BME280;29098;48.184;16.298;2022-08-19T01:18:16;98581.97;;;21.22;69.55
43503;BME280;29098;48.184;16.298;2022-08-19T01:20:43;98586.28;;;21.07;70.25
43503;BME280;29098;48.184;16.298;2022-08-19T01:23:09;98605.53;;;21.20;69.64
43503;BME280;29098;48.184;16.298;2022-08-19T01:25:47;98596.72;;;21.14;69.61
43503;BME280;29098;48.184;16.298;2022-08-19T01:28:26;98599.13;;;21.05;70.07
43503;BME280;29098;48.184;16.298;2022-08-19T01:30:53;98595.38;;;20.96;70.28
43503;BME280;29098;48.184;16.298;2022-08-19T01:33:20;98599.66;;;21.18;68.75
43503;BME280;29098;48.184;16.298;2022-08-19T01:35:46;98597.50;;;21.20;69.13
43503;BME280;29098;48.184;16.298;2022-08-19T01:38:24;98591.63;;;21.07;68.51
43503;BME280;29098;48.184;16.298;2022-08-19T01:40:53;98605.03;;;21.07;68.35
43503;BME280;29098;48.184;16.298;2022-08-19T01:43:19;98606.63;;;21.24;67.63
43503;BME280;29098;48.184;16.298;2022-08-19T01:45:46;98592.44;;;20.98;67.24
43503;BME280;29098;48.184;16.298;2022-08-19T01:48:12;98599.66;;;20.97;67.27
43503;BME280;29098;48.184;16.298;2022-08-19T01:50:38;98613.59;;;20.78;68.46
43503;BME280;29098;48.184;16.298;2022-08-19T01:53:07;98590.28;;;20.58;69.14
43503;BME280;29098;48.184;16.298;2022-08-19T01:55:34;98605.00;;;20.81;68.59
43503;BME280;29098;48.184;16.298;2022-08-19T01:58:03;98600.75;;;20.86;68.15
43503;BME280;29098;48.184;16.298;2022-08-19T02:00:31;98627.00;;;20.89;68.07
43503;BME280;29098;48.184;16.298;2022-08-19T02:02:57;98630.75;;;20.88;67.91
43503;BME280;29098;48.184;16.298;2022-08-19T02:05:23;98638.47;;;20.79;68.79
43503;BME280;29098;48.184;16.298;2022-08-19T02:07:49;98662.38;;;21.01;67.57
43503;BME280;29098;48.184;16.298;2022-08-19T02:10:20;98646.84;;;21.08;65.80
43503;BME280;29098;48.184;16.298;2022-08-19T02:12:47;98646.28;;;21.01;66.02
43503;BME280;29098;48.184;16.298;2022-08-19T02:15:13;98652.16;;;21.29;65.36
43503;BME280;29098;48.184;16.298;2022-08-19T02:17:39;98639.84;;;21.28;64.08
43503;BME280;29098;48.184;16.298;2022-08-19T02:20:05;98637.72;;;21.30;63.63
43503;BME280;29098;48.184;16.298;2022-08-19T02:22:32;98617.84;;;21.42;63.12
43503;BME280;29098;48.184;16.298;2022-08-19T02:24:58;98624.28;;;21.46;63.63
43503;BME280;29098;48.184;16.298;2022-08-19T02:27:23;98637.66;;;21.56;63.40
43503;BME280;29098;48.184;16.298;2022-08-19T02:29:50;98630.16;;;21.48;63.92
43503;BME280;29098;48.184;16.298;2022-08-19T02:32:17;98633.09;;;21.57;63.76
43503;BME280;29098;48.184;16.298;2022-08-19T02:34:43;98611.91;;;21.55;63.98
43503;BME280;29098;48.184;16.298;2022-08-19T02:37:09;98622.66;;;21.50;64.90
43503;BME280;29098;48.184;16.298;2022-08-19T02:39:54;98601.53;;;21.28;65.75
43503;BME280;29098;48.184;16.298;2022-08-19T02:42:20;98609.78;;;21.37;65.69
43503;BME280;29098;48.184;16.298;2022-08-19T02:44:45;98630.69;;;21.60;65.34
43503;BME280;29098;48.184;16.298;2022-08-19T02:47:11;98615.16;;;21.47;66.59
43503;BME280;29098;48.184;16.298;2022-08-19T02:49:39;98603.66;;;21.36;67.31
43503;BME280;29098;48.184;16.298;2022-08-19T02:52:05;98604.94;;;21.54;66.97
43503;BME280;29098;48.184;16.298;2022-08-19T02:54:30;98619.97;;;21.60;67.15
43503;BME280;29098;48.184;16.298;2022-08-19T02:56:56;98619.44;;;21.53;67.51
43503;BME280;29098;48.184;16.298;2022-08-19T02:59:21;98607.34;;;21.56;67.74
43503;BME280;29098;48.184;16.298;2022-08-19T03:01:47;98608.16;;;21.56;68.20
43503;BME280;29098;48.184;16.298;2022-08-19T03:04:14;98600.66;;;21.48;68.68
43503;BME280;29098;48.184;16.298;2022-08-19T03:06:43;98592.06;;;21.56;68.62
43503;BME280;29098;48.184;16.298;2022-08-19T03:09:10;98612.97;;;21.65;68.65
43503;BME280;29098;48.184;16.298;2022-08-19T03:11:36;98594.47;;;21.58;69.30
43503;BME280;29098;48.184;16.298;2022-08-19T03:14:04;98621.81;;;21.75;68.72
43503;BME280;29098;48.184;16.298;2022-08-19T03:16:34;98626.88;;;21.67;69.40
43503;BME280;29098;48.184;16.298;2022-08-19T03:19:01;98628.47;;;21.83;68.76
43503;BME280;29098;48.184;16.298;2022-08-19T03:21:30;98620.47;;;21.73;69.15
43503;BME280;29098;48.184;16.298;2022-08-19T03:24:02;98628.78;;;21.76;69.20
43503;BME280;29098;48.184;16.298;2022-08-19T03:26:29;98635.47;;;21.74;69.60
43503;BME280;29098;48.184;16.298;2022-08-19T03:28:55;98640.84;;;21.79;69.90
43503;BME280;29098;48.184;16.298;2022-08-19T03:31:22;98663.91;;;21.75;70.38
43503;BME280;29098;48.184;16.298;2022-08-19T03:33:51;98647.81;;;21.75;70.17
43503;BME280;29098;48.184;16.298;2022-08-19T03:36:22;98665.25;;;21.78;70.43
43503;BME280;29098;48.184;16.298;2022-08-19T03:38:51;98673.03;;;21.74;70.33
43503;BME280;29098;48.184;16.298;2022-08-19T03:41:23;98672.22;;;21.79;70.63
43503;BME280;29098;48.184;16.298;2022-08-19T03:43:50;98676.22;;;21.81;70.39
43503;BME280;29098;48.184;16.298;2022-08-19T03:46:18;98688.03;;;21.80;71.07
43503;BME280;29098;48.184;16.298;2022-08-19T03:48:46;98690.47;;;21.82;70.40
43503;BME280;29098;48.184;16.298;2022-08-19T03:51:18;98697.22;;;21.69;71.23
43503;BME280;29098;48.184;16.298;2022-08-19T03:53:47;98695.56;;;21.78;70.86
43503;BME280;29098;48.184;16.298;2022-08-19T03:56:13;98688.59;;;21.77;70.84
43503;BME280;29098;48.184;16.298;2022-08-19T03:58:40;98681.91;;;21.74;71.33
43503;BME280;29098;48.184;16.298;2022-08-19T04:01:10;98666.59;;;21.80;70.58
43503;BME280;29098;48.184;16.298;2022-08-19T04:03:37;98699.84;;;21.79;71.17
43503;BME280;29098;48.184;16.298;2022-08-19T04:06:16;98694.50;;;21.84;70.85
43503;BME280;29098;48.184;16.298;2022-08-19T04:08:44;98710.28;;;21.91;71.36
43503;BME280;29098;48.184;16.298;2022-08-19T04:11:13;98700.13;;;21.88;71.08
43503;BME280;29098;48.184;16.298;2022-08-19T04:13:38;98708.13;;;21.93;71.09
43503;BME280;29098;48.184;16.298;2022-08-19T04:16:05;98699.81;;;21.95;71.17
43503;BME280;29098;48.184;16.298;2022-08-19T04:18:33;98707.56;;;22.01;70.73
43503;BME280;29098;48.184;16.298;2022-08-19T04:20:59;98692.31;;;21.86;71.16
43503;BME280;29098;48.184;16.298;2022-08-19T04:23:24;98720.75;;;21.93;71.72
43503;BME280;29098;48.184;16.298;2022-08-19T04:25:50;98727.72;;;21.88;72.05
43503;BME280;29098;48.184;16.298;2022-08-19T04:28:15;98711.63;;;21.88;71.95
43503;BME280;29098;48.184;16.298;2022-08-19T04:30:44;98700.63;;;21.90;71.97
43503;BME280;29098;48.184;16.298;2022-08-19T04:33:13;98715.91;;;22.00;71.87
43503;BME280;29098;48.184;16.298;2022-08-19T04:35:43;98724.47;;;22.07;71.78
43503;BME280;29098;48.184;16.298;2022-08-19T04:38:10;98733.63;;;22.01;72.38
43503;BME280;29098;48.184;16.298;2022-08-19T04:40:47;98733.59;;;22.06;72.60
43503;BME280;29098;48.184;16.298;2022-08-19T04:43:33;98735.19;;;22.12;71.99
43503;BME280;29098;48.184;16.298;2022-08-19T04:46:05;98742.16;;;22.19;70.80
43503;BME280;29098;48.184;16.298;2022-08-19T04:48:31;98744.84;;;22.13;71.74
43503;BME280;29098;48.184;16.298;2022-08-19T04:50:58;98763.56;;;22.29;71.17
43503;BME280;29098;48.184;16.298;2022-08-19T04:53:28;98766.81;;;22.26;71.27
43503;BME280;29098;48.184;16.298;2022-08-19T04:55:59;98747.50;;;22.19;71.75
43503;BME280;29098;48.184;16.298;2022-08-19T04:58:28;98754.16;;;22.37;70.69
43503;BME280;29098;48.184;16.298;2022-08-19T05:00:54;98756.28;;;22.45;70.50
43503;BME280;29098;48.184;16.298;2022-08-19T05:03:20;98742.59;;;22.47;70.44
43503;BME280;29098;48.184;16.298;2022-08-19T05:05:47;98760.03;;;22.44;70.92
43503;BME280;29098;48.184;16.298;2022-08-19T05:08:16;98765.16;;;22.40;71.96
43503;BME280;29098;48.184;16.298;2022-08-19T05:10:47;98768.38;;;22.53;71.23
43503;BME280;29098;48.184;16.298;2022-08-19T05:13:14;98768.59;;;22.56;70.63
43503;BME280;29098;48.184;16.298;2022-08-19T05:15:41;98768.84;;;22.60;71.10
43503;BME280;29098;48.184;16.298;2022-08-19T05:18:07;98761.66;;;22.50;70.87
43503;BME280;29098;48.184;16.298;2022-08-19T05:20:51;98775.88;;;22.51;70.80
43503;BME280;29098;48.184;16.298;2022-08-19T05:23:35;98781.25;;;22.51;70.82
43503;BME280;29098;48.184;16.298;2022-08-19T05:26:00;98777.03;;;22.24;71.69
43503;BME280;29098;48.184;16.298;2022-08-19T05:28:26;98782.09;;;22.36;71.07
43503;BME280;29098;48.184;16.298;2022-08-19T05:30:52;98785.56;;;22.36;71.34
43503;BME280;29098;48.184;16.298;2022-08-19T05:33:21;98804.91;;;22.38;71.36
43503;BME280;29098;48.184;16.298;2022-08-19T05:35:47;98799.50;;;22.49;71.25
43503;BME280;29098;48.184;16.298;2022-08-19T05:38:15;98807.06;;;22.36;71.05
43503;BME280;29098;48.184;16.298;2022-08-19T05:40:42;98823.72;;;22.38;71.40
43503;BME280;29098;48.184;16.298;2022-08-19T05:43:11;98836.34;;;22.27;71.88
43503;BME280;29098;48.184;16.298;2022-08-19T05:45:41;98825.06;;;22.30;71.85
43503;BME280;29098;48.184;16.298;2022-08-19T05:48:07;98830.16;;;22.22;72.04
43503;BME280;29098;48.184;16.298;2022-08-19T05:50:37;98835.81;;;22.30;72.44
43503;BME280;29098;48.184;16.298;2022-08-19T05:53:03;98842.78;;;22.42;71.78
43503;BME280;29098;48.184;16.298;2022-08-19T05:55:28;98845.97;;;22.44;71.77
43503;BME280;29098;48.184;16.298;2022-08-19T05:57:54;98843.56;;;22.53;71.23
43503;BME280;29098;48.184;16.298;2022-08-19T06:00:20;98858.88;;;22.52;71.85
43503;BME280;29098;48.184;16.298;2022-08-19T06:02:46;98859.41;;;22.44;71.65
43503;BME280;29098;48.184;16.298;2022-08-19T06:05:11;98849.19;;;22.46;71.77
43503;BME280;29098;48.184;16.298;2022-08-19T06:07:38;98849.19;;;22.56;71.12
43503;BME280;29098;48.184;16.298;2022-08-19T06:10:06;98856.44;;;22.51;71.28
43503;BME280;29098;48.184;16.298;2022-08-19T06:12:34;98884.66;;;22.38;71.85
43503;BME280;29098;48.184;16.298;2022-08-19T06:15:04;98876.03;;;22.46;71.84
43503;BME280;29098;48.184;16.298;2022-08-19T06:17:30;98854.31;;;22.37;71.71
43503;BME280;29098;48.184;16.298;2022-08-19T06:19:56;98863.16;;;22.53;71.63
43503;BME280;29098;48.184;16.298;2022-08-19T06:22:22;98868.75;;;22.73;71.03
43503;BME280;29098;48.184;16.298;2022-08-19T06:24:48;98848.91;;;22.63;71.20
43503;BME280;29098;48.184;16.298;2022-08-19T06:27:18;98845.13;;;22.64;71.03
43503;BME280;29098;48.184;16.298;2022-08-19T06:29:44;98840.28;;;22.71;70.63
43503;BME280;29098;48.184;16.298;2022-08-19T06:32:11;98835.41;;;22.79;70.61
43503;BME280;29098;48.184;16.298;2022-08-19T06:34:38;98861.66;;;22.97;70.04
43503;BME280;29098;48.184;16.298;2022-08-19T06:37:04;98863.31;;;22.93;70.13
43503;BME280;29098;48.184;16.298;2022-08-19T06:39:34;98872.13;;;23.04;69.92
43503;BME280;29098;48.184;16.298;2022-08-19T06:42:02;98867.56;;;22.99;69.48
43503;BME280;29098;48.184;16.298;2022-08-19T06:44:33;98875.31;;;23.11;69.55
43503;BME280;29098;48.184;16.298;2022-08-19T06:47:06;98873.69;;;23.10;70.23
43503;BME280;29098;48.184;16.298;2022-08-19T06:49:32;98853.06;;;23.01;69.12
43503;BME280;29098;48.184;16.298;2022-08-19T06:51:58;98869.38;;;23.09;69.00
43503;BME280;29098;48.184;16.298;2022-08-19T06:54:26;98869.13;;;23.11;68.69
43503;BME280;29098;48.184;16.298;2022-08-19T06:56:52;98854.00;;;23.20;68.61
43503;BME280;29098;48.184;16.298;2022-08-19T06:59:20;98849.50;;;23.61;68.92
43503;BME280;29098;48.184;16.298;2022-08-19T07:01:51;98858.94;;;23.53;68.48
43503;BME280;29098;48.184;16.298;2022-08-19T07:04:20;98854.88;;;23.61;67.23
43503;BME280;29098;48.184;16.298;2022-08-19T07:06:47;98855.91;;;23.65;67.60
43503;BME280;29098;48.184;16.298;2022-08-19T07:09:15;98839.75;;;23.65;67.34
43503;BME280;29098;48.184;16.298;2022-08-19T07:11:46;98840.75;;;23.74;67.38
43503;BME280;29098;48.184;16.298;2022-08-19T07:14:12;98843.16;;;23.81;66.74
43503;BME280;29098;48.184;16.298;2022-08-19T07:16:39;98829.47;;;23.72;66.78
43503;BME280;29098;48.184;16.298;2022-08-19T07:19:05;98838.78;;;23.85;65.54
43503;BME280;29098;48.184;16.298;2022-08-19T07:21:31;98836.53;;;23.98;65.89
43503;BME280;29098;48.184;16.298;2022-08-19T07:23:59;98833.50;;;24.10;65.02
43503;BME280;29098;48.184;16.298;2022-08-19T07:26:29;98828.19;;;23.99;65.35
43503;BME280;29098;48.184;16.298;2022-08-19T07:28:56;98832.47;;;24.00;65.33
43503;BME280;29098;48.184;16.298;2022-08-19T07:31:24;98830.28;;;24.07;64.95
43503;BME280;29098;48.184;16.298;2022-08-19T07:33:52;98822.38;;;24.16;64.90
43503;BME280;29098;48.184;16.298;2022-08-19T07:36:22;98823.19;;;24.17;64.04
43503;BME280;29098;48.184;16.298;2022-08-19T07:38:50;98812.19;;;24.13;64.51
43503;BME280;29098;48.184;16.298;2022-08-19T07:41:24;98812.03;;;24.29;64.00
43503;BME280;29098;48.184;16.298;2022-08-19T07:43:51;98806.69;;;24.48;63.20
43503;BME280;29098;48.184;16.298;2022-08-19T07:46:18;98776.00;;;24.68;62.57
43503;BME280;29098;48.184;16.298;2022-08-19T07:48:46;98761.03;;;24.81;62.42
43503;BME280;29098;48.184;16.298;2022-08-19T07:51:14;98774.00;;;24.98;62.10
43503;BME280;29098;48.184;16.298;2022-08-19T07:53:40;98780.63;;;24.87;62.04
43503;BME280;29098;48.184;16.298;2022-08-19T07:56:05;98779.69;;;24.97;61.46
43503;BME280;29098;48.184;16.298;2022-08-19T07:58:34;98786.81;;;25.07;61.74
43503;BME280;29098;48.184;16.298;2022-08-19T08:01:00;98791.78;;;25.19;61.81
43503;BME280;29098;48.184;16.298;2022-08-19T08:03:27;98793.84;;;25.41;60.28
43503;BME280;29098;48.184;16.298;2022-08-19T08:06:13;98804.00;;;25.82;59.09
43503;BME280;29098;48.184;16.298;2022-08-19T08:08:57;98803.44;;;25.99;58.73
43503;BME280;29098;48.184;16.298;2022-08-19T08:11:55;98802.06;;;26.16;57.52
43503;BME280;29098;48.184;16.298;2022-08-19T08:14:29;98795.84;;;26.16;56.61
43503;BME280;29098;48.184;16.298;2022-08-19T08:16:54;98805.03;;;26.01;57.65
43503;BME280;29098;48.184;16.298;2022-08-19T08:19:21;98797.13;;;25.90;57.71
43503;BME280;29098;48.184;16.298;2022-08-19T08:21:49;98818.84;;;26.13;56.79
43503;BME280;29098;48.184;16.298;2022-08-19T08:24:15;98815.66;;;26.11;56.22
43503;BME280;29098;48.184;16.298;2022-08-19T08:26:40;98816.97;;;26.13;56.55
43503;BME280;29098;48.184;16.298;2022-08-19T08:29:07;98821.25;;;26.15;56.49
43503;BME280;29098;48.184;16.298;2022-08-19T08:31:36;98815.16;;;26.09;56.45
43503;BME280;29098;48.184;16.298;2022-08-19T08:34:03;98823.41;;;26.32;55.51
43503;BME280;29098;48.184;16.298;2022-08-19T08:36:28;98821.28;;;26.29;55.71
43503;BME280;29098;48.184;16.298;2022-08-19T08:38:54;98846.00;;;26.36;55.62
43503;BME280;29098;48.184;16.298;2022-08-19T08:42:07;98831.50;;;26.32;55.63
43503;BME280;29098;48.184;16.298;2022-08-19T08:47:04;98834.22;;;26.46;55.10
43503;BME280;29098;48.184;16.298;2022-08-19T08:52:07;98850.94;;;26.62;54.92
43503;BME280;29098;48.184;16.298;2022-08-19T08:54:40;98856.84;;;26.64;54.92
43503;BME280;29098;48.184;16.298;2022-08-19T08:57:12;98852.31;;;26.73;53.22
43503;BME280;29098;48.184;16.298;2022-08-19T08:59:40;98849.44;;;26.56;54.28
43503;BME280;29098;48.184;16.298;2022-08-19T09:02:07;98860.13;;;26.61;54.53
43503;BME280;29098;48.184;16.298;2022-08-19T09:04:37;98851.53;;;26.59;54.39
43503;BME280;29098;48.184;16.298;2022-08-19T09:09:50;98843.09;;;26.74;53.29
43503;BME280;29098;48.184;16.298;2022-08-19T09:15:32;98819.84;;;26.87;53.65
43503;BME280;29098;48.184;16.298;2022-08-19T09:18:02;98818.75;;;27.02;54.01
43503;BME280;29098;48.184;16.298;2022-08-19T09:20:28;98806.94;;;26.98;52.52
43503;BME280;29098;48.184;16.298;2022-08-19T09:22:53;98800.38;;;27.13;53.50
43503;BME280;29098;48.184;16.298;2022-08-19T09:25:22;98792.94;;;27.19;51.93
43503;BME280;29098;48.184;16.298;2022-08-19T09:27:48;98799.34;;;27.23;52.24
43503;BME280;29098;48.184;16.298;2022-08-19T09:30:20;98783.50;;;27.30;52.26
43503;BME280;29098;48.184;16.298;2022-08-19T09:32:47;98800.81;;;27.52;50.67
43503;BME280;29098;48.184;16.298;2022-08-19T09:35:14;98786.91;;;27.68;51.16
43503;BME280;29098;48.184;16.298;2022-08-19T09:37:41;98775.34;;;27.76;51.01
43503;BME280;29098;48.184;16.298;2022-08-19T09:40:08;98760.34;;;27.70;51.08
43503;BME280;29098;48.184;16.298;2022-08-19T09:42:34;98786.63;;;28.01;50.35
43503;BME280;29098;48.184;16.298;2022-08-19T09:45:00;98774.69;;;28.02;49.12
43503;BME280;29098;48.184;16.298;2022-08-19T09:47:25;98786.81;;;28.05;49.63
43503;BME280;29098;48.184;16.298;2022-08-19T09:49:51;98786.47;;;28.06;49.19
43503;BME280;29098;48.184;16.298;2022-08-19T09:52:16;98790.03;;;28.15;49.84
43503;BME280;29098;48.184;16.298;2022-08-19T09:54:42;98773.09;;;28.01;48.24
43503;BME280;29098;48.184;16.298;2022-08-19T09:57:08;98797.59;;;28.27;47.58
43503;BME280;29098;48.184;16.298;2022-08-19T09:59:34;98776.16;;;28.66;46.07
43503;BME280;29098;48.184;16.298;2022-08-19T10:01:59;98784.75;;;28.68;44.76
43503;BME280;29098;48.184;16.298;2022-08-19T10:04:25;98783.66;;;28.78;44.45
43503;BME280;29098;48.184;16.298;2022-08-19T10:07:13;98775.53;;;28.69;43.41
43503;BME280;29098;48.184;16.298;2022-08-19T10:09:39;98768.72;;;28.90;43.08
43503;BME280;29098;48.184;16.298;2022-08-19T10:12:06;98760.31;;;28.42;44.07
43503;BME280;29098;48.184;16.298;2022-08-19T10:14:32;98779.88;;;28.30;45.33
43503;BME280;29098;48.184;16.298;2022-08-19T10:16:57;98763.00;;;28.33;46.13
43503;BME280;29098;48.184;16.298;2022-08-19T10:19:24;98774.97;;;28.32;45.48
43503;BME280;29098;48.184;16.298;2022-08-19T10:21:50;98774.63;;;28.25;45.87
43503;BME280;29098;48.184;16.298;2022-08-19T10:24:15;98779.88;;;28.30;45.99
43503;BME280;29098;48.184;16.298;2022-08-19T10:26:41;98776.09;;;28.31;47.17
43503;BME280;29098;48.184;16.298;2022-08-19T10:29:10;98794.91;;;28.36;47.66
43503;BME280;29098;48.184;16.298;2022-08-19T10:31:37;98793.59;;;28.34;46.98
43503;BME280;29098;48.184;16.298;2022-08-19T10:34:02;98804.78;;;28.32;46.95
43503;BME280;29098;48.184;16.298;2022-08-19T10:36:33;98814.28;;;28.21;48.65
43503;BME280;29098;48.184;16.298;2022-08-19T10:39:03;98825.31;;;27.93;48.21
43503;BME280;29098;48.184;16.298;2022-08-19T10:41:32;98837.59;;;27.99;48.14
43503;BME280;29098;48.184;16.298;2022-08-19T10:44:02;98829.63;;;27.94;48.66
43503;BME280;29098;48.184;16.298;2022-08-19T10:46:29;98841.88;;;27.68;48.49
43503;BME280;29098;48.184;16.298;2022-08-19T10:48:58;98811.63;;;27.66;48.87
43503;BME280;29098;48.184;16.298;2022-08-19T10:51:24;98788.78;;;27.58;50.26
43503;BME280;29098;48.184;16.298;2022-08-19T10:54:09;98786.63;;;27.46;51.14
43503;BME280;29098;48.184;16.298;2022-08-19T10:56:34;98808.53;;;27.36;55.05
43503;BME280;29098;48.184;16.298;2022-08-19T10:59:23;98800.88;;;27.15;57.96
43503;BME280;29098;48.184;16.298;2022-08-19T11:01:51;98803.38;;;27.12;57.77
43503;BME280;29098;48.184;16.298;2022-08-19T11:04:18;98817.16;;;27.01;57.01
43503;BME280;29098;48.184;16.298;2022-08-19T11:06:45;98816.53;;;27.04;57.94
43503;BME280;29098;48.184;16.298;2022-08-19T11:09:14;98811.03;;;27.10;56.84
43503;BME280;29098;48.184;16.298;2022-08-19T11:11:41;98813.78;;;27.18;57.41
43503;BME280;29098;48.184;16.298;2022-08-19T11:14:12;98807.69;;;27.13;57.52
43503;BME280;29098;48.184;16.298;2022-08-19T11:16:39;98794.78;;;27.10;57.84
43503;BME280;29098;48.184;16.298;2022-08-19T11:19:06;98779.91;;;26.84;57.30
43503;BME280;29098;48.184;16.298;2022-08-19T11:21:37;98785.84;;;26.72;56.27
43503;BME280;29098;48.184;16.298;2022-08-19T11:24:09;98783.03;;;26.77;57.70
43503;BME280;29098;48.184;16.298;2022-08-19T11:26:36;98777.81;;;26.67;57.52
43503;BME280;29098;48.184;16.298;2022-08-19T11:29:03;98791.22;;;26.86;55.90
43503;BME280;29098;48.184;16.298;2022-08-19T11:31:33;98763.19;;;26.68;55.61
43503;BME280;29098;48.184;16.298;2022-08-19T11:34:03;98768.03;;;27.08;55.21
43503;BME280;29098;48.184;16.298;2022-08-19T11:36:29;98788.53;;;27.46;54.87
43503;BME280;29098;48.184;16.298;2022-08-19T11:38:56;98770.00;;;27.39;51.61
43503;BME280;29098;48.184;16.298;2022-08-19T11:41:23;98772.72;;;27.62;51.97
43503;BME280;29098;48.184;16.298;2022-08-19T11:43:53;98757.38;;;27.80;51.61
43503;BME280;29098;48.184;16.298;2022-08-19T11:46:21;98759.31;;;27.57;51.03
43503;BME280;29098;48.184;16.298;2022-08-19T11:48:48;98775.13;;;27.41;50.86
43503;BME280;29098;48.184;16.298;2022-08-19T11:51:17;98755.69;;;27.61;50.29
43503;BME280;29098;48.184;16.298;2022-08-19T11:53:44;98757.31;;;29.40;46.42
43503;BME280;29098;48.184;16.298;2022-08-19T11:56:09;98764.28;;;30.76;43.22
43503;BME280;29098;48.184;16.298;2022-08-19T11:58:35;98777.53;;;31.88;40.13
43503;BME280;29098;48.184;16.298;2022-08-19T12:01:04;98768.91;;;32.35;37.48
43503;BME280;29098;48.184;16.298;2022-08-19T12:03:30;98774.81;;;31.54;37.59
43503;BME280;29098;48.184;16.298;2022-08-19T12:05:55;98770.88;;;30.96;38.40
43503;BME280;29098;48.184;16.298;2022-08-19T12:08:21;98746.63;;;30.10;39.26
43503;BME280;29098;48.184;16.298;2022-08-19T12:10:47;98752.88;;;29.92;40.29
43503;BME280;29098;48.184;16.298;2022-08-19T12:13:14;98766.91;;;29.56;40.65
43503;BME280;29098;48.184;16.298;2022-08-19T12:15:46;98763.78;;;29.84;40.72
43503;BME280;29098;48.184;16.298;2022-08-19T12:18:12;98758.25;;;29.71;40.74
43503;BME280;29098;48.184;16.298;2022-08-19T12:20:40;98762.78;;;29.32;42.31
43503;BME280;29098;48.184;16.298;2022-08-19T12:23:08;98750.09;;;29.62;41.42
43503;BME280;29098;48.184;16.298;2022-08-19T12:25:35;98764.19;;;30.03;39.97
43503;BME280;29098;48.184;16.298;2022-08-19T12:28:01;98763.56;;;30.37;39.86
43503;BME280;29098;48.184;16.298;2022-08-19T12:30:27;98778.94;;;30.62;39.47
43503;BME280;29098;48.184;16.298;2022-08-19T12:32:52;98758.13;;;30.06;40.23
43503;BME280;29098;48.184;16.298;2022-08-19T12:35:18;98773.28;;;29.60;41.43
43503;BME280;29098;48.184;16.298;2022-08-19T12:37:46;98780.00;;;29.36;42.15
43503;BME280;29098;48.184;16.298;2022-08-19T12:40:13;98788.97;;;29.28;42.50
43503;BME280;29098;48.184;16.298;2022-08-19T12:42:39;98785.16;;;28.93;43.72
43503;BME280;29098;48.184;16.298;2022-08-19T12:45:12;98808.13;;;28.87;44.17
43503;BME280;29098;48.184;16.298;2022-08-19T12:47:38;98801.47;;;28.44;44.90
43503;BME280;29098;48.184;16.298;2022-08-19T12:50:05;98827.41;;;28.36;44.80
43503;BME280;29098;48.184;16.298;2022-08-19T12:52:35;98832.09;;;28.13;46.36
43503;BME280;29098;48.184;16.298;2022-08-19T12:55:07;98818.59;;;27.90;48.76
43503;BME280;29098;48.184;16.298;2022-08-19T12:57:32;98828.91;;;27.56;50.29
43503;BME280;29098;48.184;16.298;2022-08-19T13:00:12;98813.00;;;27.41;51.60
43503;BME280;29098;48.184;16.298;2022-08-19T13:02:39;98812.53;;;27.39;52.14
43503;BME280;29098;48.184;16.298;2022-08-19T13:05:07;98786.97;;;27.31;52.23
43503;BME280;29098;48.184;16.298;2022-08-19T13:07:34;98796.28;;;27.39;52.44